sensor_id;sensor_type;location;lat;lon;timestamp;temperature;humidity
52513;DHT22;38422;53.172;6.974;2022-09-09T00:07:42;16.40;99.90
52513;DHT22;38422;53.172;6.974;2022-09-09T00:15:55;16.30;99.90
52513;DHT22;38422;53.172;6.974;2022-09-09T00:18:54;16.30;99.90
52513;DHT22;38422;53.172;6.974;2022-09-09T00:21:34;16.30;99.90
52513;DHT22;38422;53.172;6.974;2022-09-09T00:24:08;16.30;99.90
52513;DHT22;38422;53.172;6.974;2022-09-09T00:26:51;16.30;99.90
52513;DHT22;38422;53.172;6.974;2022-09-09T00:29:47;16.30;99.90
52513;DHT22;38422;53.172;6.974;2022-09-09T00:32:18;16.30;99.90
52513;DHT22;38422;53.172;6.974;2022-09-09T00:37:42;16.20;99.90
52513;DHT22;38422;53.172;6.974;2022-09-09T00:40:26;16.20;99.90
52513;DHT22;38422;53.172;6.974;2022-09-09T00:48:41;16.10;99.90
52513;DHT22;38422;53.172;6.974;2022-09-09T00:56:57;16.00;99.90
52513;DHT22;38422;53.172;6.974;2022-09-09T00:59:44;16.00;99.90
52513;DHT22;38422;53.172;6.974;2022-09-09T01:04:52;16.10;99.90
52513;DHT22;38422;53.172;6.974;2022-09-09T01:07:18;16.00;99.90
52513;DHT22;38422;53.172;6.974;2022-09-09T01:09:57;16.00;99.90
52513;DHT22;38422;53.172;6.974;2022-09-09T01:12:38;16.00;99.90
52513;DHT22;38422;53.172;6.974;2022-09-09T01:15:10;16.00;99.90
52513;DHT22;38422;53.172;6.974;2022-09-09T01:20:39;16.00;99.90
52513;DHT22;38422;53.172;6.974;2022-09-09T01:26:15;15.90;99.90
52513;DHT22;38422;53.172;6.974;2022-09-09T01:28:47;15.90;99.90
52513;DHT22;38422;53.172;6.974;2022-09-09T01:31:36;15.90;99.90
52513;DHT22;38422;53.172;6.974;2022-09-09T01:34:12;15.80;99.90
52513;DHT22;38422;53.172;6.974;2022-09-09T01:36:43;15.80;99.90
52513;DHT22;38422;53.172;6.974;2022-09-09T01:39:10;15.80;99.90
52513;DHT22;38422;53.172;6.974;2022-09-09T01:41:36;15.80;99.90
52513;DHT22;38422;53.172;6.974;2022-09-09T01:44:03;15.80;99.90
52513;DHT22;38422;53.172;6.974;2022-09-09T01:46:29;15.80;99.90
52513;DHT22;38422;53.172;6.974;2022-09-09T01:48:55;15.80;99.90
52513;DHT22;38422;53.172;6.974;2022-09-09T01:51:21;15.70;99.90
52513;DHT22;38422;53.172;6.974;2022-09-09T01:53:47;15.70;99.90
52513;DHT22;38422;53.172;6.974;2022-09-09T02:07:00;15.60;99.90
52513;DHT22;38422;53.172;6.974;2022-09-09T02:09:26;15.60;99.90
52513;DHT22;38422;53.172;6.974;2022-09-09T02:12:16;15.60;99.90
52513;DHT22;38422;53.172;6.974;2022-09-09T02:14:49;15.60;99.90
52513;DHT22;38422;53.172;6.974;2022-09-09T02:17:21;15.60;99.90
52513;DHT22;38422;53.172;6.974;2022-09-09T02:19:53;15.60;99.90
52513;DHT22;38422;53.172;6.974;2022-09-09T02:22:22;15.60;99.90
52513;DHT22;38422;53.172;6.974;2022-09-09T02:24:50;15.50;99.90
52513;DHT22;38422;53.172;6.974;2022-09-09T02:27:20;15.50;99.90
52513;DHT22;38422;53.172;6.974;2022-09-09T02:29:48;15.50;99.90
52513;DHT22;38422;53.172;6.974;2022-09-09T02:32:18;15.40;99.90
52513;DHT22;38422;53.172;6.974;2022-09-09T02:34:58;15.40;99.90
52513;DHT22;38422;53.172;6.974;2022-09-09T02:37:29;15.40;99.90
52513;DHT22;38422;53.172;6.974;2022-09-09T02:39:57;15.40;99.90
52513;DHT22;38422;53.172;6.974;2022-09-09T02:42:23;15.40;99.90
52513;DHT22;38422;53.172;6.974;2022-09-09T02:44:49;15.40;99.90
52513;DHT22;38422;53.172;6.974;2022-09-09T02:47:29;15.40;99.90
52513;DHT22;38422;53.172;6.974;2022-09-09T02:52:57;15.40;99.90
52513;DHT22;38422;53.172;6.974;2022-09-09T02:58:05;15.40;99.90
52513;DHT22;38422;53.172;6.974;2022-09-09T03:00:33;15.30;99.90
52513;DHT22;38422;53.172;6.974;2022-09-09T03:02:58;15.30;99.90
52513;DHT22;38422;53.172;6.974;2022-09-09T03:05:24;15.40;99.90
52513;DHT22;38422;53.172;6.974;2022-09-09T03:07:50;15.30;99.90
52513;DHT22;38422;53.172;6.974;2022-09-09T03:10:17;15.40;99.90
52513;DHT22;38422;53.172;6.974;2022-09-09T03:12:43;15.40;99.90
52513;DHT22;38422;53.172;6.974;2022-09-09T03:15:09;15.40;99.90
52513;DHT22;38422;53.172;6.974;2022-09-09T03:17:35;15.40;99.90
52513;DHT22;38422;53.172;6.974;2022-09-09T03:20:02;15.40;99.90
52513;DHT22;38422;53.172;6.974;2022-09-09T03:22:28;15.40;99.90
52513;DHT22;38422;53.172;6.974;2022-09-09T03:24:54;15.40;99.90
52513;DHT22;38422;53.172;6.974;2022-09-09T03:27:19;15.40;99.90
52513;DHT22;38422;53.172;6.974;2022-09-09T03:29:46;15.40;99.90
52513;DHT22;38422;53.172;6.974;2022-09-09T03:32:12;15.30;99.90
52513;DHT22;38422;53.172;6.974;2022-09-09T03:34:38;15.30;99.90
52513;DHT22;38422;53.172;6.974;2022-09-09T03:37:07;15.30;99.90
52513;DHT22;38422;53.172;6.974;2022-09-09T03:39:33;15.40;99.90
52513;DHT22;38422;53.172;6.974;2022-09-09T03:41:58;15.30;99.90
52513;DHT22;38422;53.172;6.974;2022-09-09T03:44:24;15.40;99.90
52513;DHT22;38422;53.172;6.974;2022-09-09T03:46:50;15.40;99.90
52513;DHT22;38422;53.172;6.974;2022-09-09T03:49:15;15.40;99.90
52513;DHT22;38422;53.172;6.974;2022-09-09T03:51:42;15.40;99.90
52513;DHT22;38422;53.172;6.974;2022-09-09T03:54:07;15.40;99.90
52513;DHT22;38422;53.172;6.974;2022-09-09T03:56:35;15.40;99.90
52513;DHT22;38422;53.172;6.974;2022-09-09T03:59:01;15.40;99.90
52513;DHT22;38422;53.172;6.974;2022-09-09T04:01:28;15.30;99.90
52513;DHT22;38422;53.172;6.974;2022-09-09T04:03:53;15.40;99.90
52513;DHT22;38422;53.172;6.974;2022-09-09T04:06:20;15.40;99.90
52513;DHT22;38422;53.172;6.974;2022-09-09T04:08:46;15.40;99.90
52513;DHT22;38422;53.172;6.974;2022-09-09T04:11:15;15.40;99.90
52513;DHT22;38422;53.172;6.974;2022-09-09T04:13:41;15.40;99.90
52513;DHT22;38422;53.172;6.974;2022-09-09T04:16:08;15.40;99.90
52513;DHT22;38422;53.172;6.974;2022-09-09T04:18:35;15.50;99.90
52513;DHT22;38422;53.172;6.974;2022-09-09T04:21:00;15.50;99.90
52513;DHT22;38422;53.172;6.974;2022-09-09T04:23:27;15.50;99.90
52513;DHT22;38422;53.172;6.974;2022-09-09T04:25:58;15.50;99.90
52513;DHT22;38422;53.172;6.974;2022-09-09T04:28:27;15.40;99.90
52513;DHT22;38422;53.172;6.974;2022-09-09T04:30:53;15.40;99.90
52513;DHT22;38422;53.172;6.974;2022-09-09T04:33:19;15.40;99.90
52513;DHT22;38422;53.172;6.974;2022-09-09T04:35:47;15.40;99.90
52513;DHT22;38422;53.172;6.974;2022-09-09T04:38:13;15.40;99.90
52513;DHT22;38422;53.172;6.974;2022-09-09T04:40:49;15.40;99.90
52513;DHT22;38422;53.172;6.974;2022-09-09T04:43:15;15.40;99.90
52513;DHT22;38422;53.172;6.974;2022-09-09T04:45:47;15.40;99.90
52513;DHT22;38422;53.172;6.974;2022-09-09T04:48:13;15.40;99.90
52513;DHT22;38422;53.172;6.974;2022-09-09T04:50:39;15.40;99.90
52513;DHT22;38422;53.172;6.974;2022-09-09T04:53:06;15.40;99.90
52513;DHT22;38422;53.172;6.974;2022-09-09T04:55:32;15.40;99.90
52513;DHT22;38422;53.172;6.974;2022-09-09T04:58:06;15.50;99.90
52513;DHT22;38422;53.172;6.974;2022-09-09T05:00:33;15.50;99.90
52513;DHT22;38422;53.172;6.974;2022-09-09T05:03:04;15.50;99.90
52513;DHT22;38422;53.172;6.974;2022-09-09T05:05:32;15.50;99.90
52513;DHT22;38422;53.172;6.974;2022-09-09T05:08:03;15.50;99.90
52513;DHT22;38422;53.172;6.974;2022-09-09T05:10:30;15.50;99.90
52513;DHT22;38422;53.172;6.974;2022-09-09T05:12:55;15.50;99.90
52513;DHT22;38422;53.172;6.974;2022-09-09T05:15:21;15.50;99.90
52513;DHT22;38422;53.172;6.974;2022-09-09T05:17:47;15.50;99.90
52513;DHT22;38422;53.172;6.974;2022-09-09T05:20:13;15.50;99.90
52513;DHT22;38422;53.172;6.974;2022-09-09T05:22:38;15.60;99.90
52513;DHT22;38422;53.172;6.974;2022-09-09T05:25:04;15.60;99.90
52513;DHT22;38422;53.172;6.974;2022-09-09T05:27:30;15.50;99.90
52513;DHT22;38422;53.172;6.974;2022-09-09T05:29:58;15.50;99.90
52513;DHT22;38422;53.172;6.974;2022-09-09T05:32:24;15.50;99.90
52513;DHT22;38422;53.172;6.974;2022-09-09T05:34:49;15.40;99.90
52513;DHT22;38422;53.172;6.974;2022-09-09T05:37:16;15.40;99.90
52513;DHT22;38422;53.172;6.974;2022-09-09T05:39:42;15.40;99.90
52513;DHT22;38422;53.172;6.974;2022-09-09T05:42:08;15.40;99.90
52513;DHT22;38422;53.172;6.974;2022-09-09T05:44:33;15.40;99.90
52513;DHT22;38422;53.172;6.974;2022-09-09T05:46:59;15.40;99.90
52513;DHT22;38422;53.172;6.974;2022-09-09T05:49:25;15.40;99.90
52513;DHT22;38422;53.172;6.974;2022-09-09T05:51:51;15.40;99.90
52513;DHT22;38422;53.172;6.974;2022-09-09T05:54:17;15.30;99.90
52513;DHT22;38422;53.172;6.974;2022-09-09T05:56:42;15.40;99.90
52513;DHT22;38422;53.172;6.974;2022-09-09T05:59:08;15.30;99.90
52513;DHT22;38422;53.172;6.974;2022-09-09T06:01:36;15.40;99.90
52513;DHT22;38422;53.172;6.974;2022-09-09T06:04:06;15.40;99.90
52513;DHT22;38422;53.172;6.974;2022-09-09T06:06:34;15.40;99.90
52513;DHT22;38422;53.172;6.974;2022-09-09T06:09:02;15.40;99.90
52513;DHT22;38422;53.172;6.974;2022-09-09T06:11:30;15.40;99.90
52513;DHT22;38422;53.172;6.974;2022-09-09T06:13:56;15.40;99.90
52513;DHT22;38422;53.172;6.974;2022-09-09T06:16:24;15.50;99.90
52513;DHT22;38422;53.172;6.974;2022-09-09T06:18:51;15.40;99.90
52513;DHT22;38422;53.172;6.974;2022-09-09T06:21:21;15.50;99.90
52513;DHT22;38422;53.172;6.974;2022-09-09T06:23:47;15.50;99.90
52513;DHT22;38422;53.172;6.974;2022-09-09T06:26:21;15.50;99.90
52513;DHT22;38422;53.172;6.974;2022-09-09T06:28:49;15.50;99.90
52513;DHT22;38422;53.172;6.974;2022-09-09T06:31:17;15.60;99.90
52513;DHT22;38422;53.172;6.974;2022-09-09T06:33:43;15.60;99.90
52513;DHT22;38422;53.172;6.974;2022-09-09T06:36:12;15.60;99.90
52513;DHT22;38422;53.172;6.974;2022-09-09T06:38:39;15.60;99.90
52513;DHT22;38422;53.172;6.974;2022-09-09T06:41:04;15.70;99.90
52513;DHT22;38422;53.172;6.974;2022-09-09T06:43:31;15.70;99.90
52513;DHT22;38422;53.172;6.974;2022-09-09T06:46:02;15.70;99.90
52513;DHT22;38422;53.172;6.974;2022-09-09T06:48:28;15.80;99.90
52513;DHT22;38422;53.172;6.974;2022-09-09T06:51:05;15.80;99.90
52513;DHT22;38422;53.172;6.974;2022-09-09T06:53:32;15.90;99.90
52513;DHT22;38422;53.172;6.974;2022-09-09T06:58:40;15.90;99.90
52513;DHT22;38422;53.172;6.974;2022-09-09T07:01:11;16.00;99.90
52513;DHT22;38422;53.172;6.974;2022-09-09T07:03:41;16.10;99.90
52513;DHT22;38422;53.172;6.974;2022-09-09T07:06:08;16.20;99.90
52513;DHT22;38422;53.172;6.974;2022-09-09T07:08:34;16.20;99.90
52513;DHT22;38422;53.172;6.974;2022-09-09T07:11:05;16.20;99.90
52513;DHT22;38422;53.172;6.974;2022-09-09T07:13:31;16.30;99.90
52513;DHT22;38422;53.172;6.974;2022-09-09T07:16:17;16.40;99.90
52513;DHT22;38422;53.172;6.974;2022-09-09T07:18:43;16.50;99.90
52513;DHT22;38422;53.172;6.974;2022-09-09T07:21:11;16.50;99.90
52513;DHT22;38422;53.172;6.974;2022-09-09T07:23:38;16.50;99.90
52513;DHT22;38422;53.172;6.974;2022-09-09T07:26:18;16.60;99.90
52513;DHT22;38422;53.172;6.974;2022-09-09T07:28:45;16.60;99.90
52513;DHT22;38422;53.172;6.974;2022-09-09T07:31:19;16.60;99.90
52513;DHT22;38422;53.172;6.974;2022-09-09T07:33:46;16.60;99.90
52513;DHT22;38422;53.172;6.974;2022-09-09T07:38:45;16.70;99.90
52513;DHT22;38422;53.172;6.974;2022-09-09T07:41:17;16.80;99.90
52513;DHT22;38422;53.172;6.974;2022-09-09T07:43:45;16.80;99.90
52513;DHT22;38422;53.172;6.974;2022-09-09T07:46:12;16.80;99.90
52513;DHT22;38422;53.172;6.974;2022-09-09T07:48:43;16.80;99.90
52513;DHT22;38422;53.172;6.974;2022-09-09T07:51:15;16.90;99.90
52513;DHT22;38422;53.172;6.974;2022-09-09T07:53:45;17.00;99.90
52513;DHT22;38422;53.172;6.974;2022-09-09T07:56:14;17.10;99.90
52513;DHT22;38422;53.172;6.974;2022-09-09T07:58:44;17.20;99.90
52513;DHT22;38422;53.172;6.974;2022-09-09T08:01:16;17.20;99.90
52513;DHT22;38422;53.172;6.974;2022-09-09T08:03:44;17.30;99.90
52513;DHT22;38422;53.172;6.974;2022-09-09T08:06:10;17.50;99.90
52513;DHT22;38422;53.172;6.974;2022-09-09T08:08:37;17.50;99.90
52513;DHT22;38422;53.172;6.974;2022-09-09T08:11:08;17.60;99.90
52513;DHT22;38422;53.172;6.974;2022-09-09T08:13:38;17.60;99.90
52513;DHT22;38422;53.172;6.974;2022-09-09T08:16:18;17.60;99.90
52513;DHT22;38422;53.172;6.974;2022-09-09T08:18:47;17.60;99.90
52513;DHT22;38422;53.172;6.974;2022-09-09T08:21:15;17.70;99.90
52513;DHT22;38422;53.172;6.974;2022-09-09T08:23:44;17.80;99.90
52513;DHT22;38422;53.172;6.974;2022-09-09T08:26:38;17.90;99.90
52513;DHT22;38422;53.172;6.974;2022-09-09T08:29:06;18.00;99.90
52513;DHT22;38422;53.172;6.974;2022-09-09T08:31:39;18.00;99.90
52513;DHT22;38422;53.172;6.974;2022-09-09T08:34:06;18.00;99.90
52513;DHT22;38422;53.172;6.974;2022-09-09T08:36:34;18.10;99.90
52513;DHT22;38422;53.172;6.974;2022-09-09T08:39:00;18.10;99.90
52513;DHT22;38422;53.172;6.974;2022-09-09T08:52:53;18.40;99.90
52513;DHT22;38422;53.172;6.974;2022-09-09T09:03:47;18.40;99.90
52513;DHT22;38422;53.172;6.974;2022-09-09T09:06:40;18.50;99.90
52513;DHT22;38422;53.172;6.974;2022-09-09T09:09:24;18.50;99.90
52513;DHT22;38422;53.172;6.974;2022-09-09T09:11:54;18.50;99.90
52513;DHT22;38422;53.172;6.974;2022-09-09T09:14:30;18.70;99.90
52513;DHT22;38422;53.172;6.974;2022-09-09T09:19:30;19.10;99.90
52513;DHT22;38422;53.172;6.974;2022-09-09T09:22:22;19.20;99.90
52513;DHT22;38422;53.172;6.974;2022-09-09T09:31:18;19.90;99.90
52513;DHT22;38422;53.172;6.974;2022-09-09T09:33:50;20.20;99.90
52513;DHT22;38422;53.172;6.974;2022-09-09T09:36:41;20.30;99.90
52513;DHT22;38422;53.172;6.974;2022-09-09T09:39:04;20.50;99.90
52513;DHT22;38422;53.172;6.974;2022-09-09T09:41:38;20.50;99.90
52513;DHT22;38422;53.172;6.974;2022-09-09T09:44:18;20.60;99.90
52513;DHT22;38422;53.172;6.974;2022-09-09T09:46:46;20.50;99.90
52513;DHT22;38422;53.172;6.974;2022-09-09T09:49:12;20.30;99.90
52513;DHT22;38422;53.172;6.974;2022-09-09T09:51:40;20.10;99.90
52513;DHT22;38422;53.172;6.974;2022-09-09T09:56:42;20.20;99.90
52513;DHT22;38422;53.172;6.974;2022-09-09T09:59:21;20.30;99.90
52513;DHT22;38422;53.172;6.974;2022-09-09T10:01:47;20.50;99.90
52513;DHT22;38422;53.172;6.974;2022-09-09T10:04:19;20.80;99.90
52513;DHT22;38422;53.172;6.974;2022-09-09T10:06:46;20.90;99.90
52513;DHT22;38422;53.172;6.974;2022-09-09T10:09:29;20.70;99.90
52513;DHT22;38422;53.172;6.974;2022-09-09T10:22:49;20.90;99.90
52513;DHT22;38422;53.172;6.974;2022-09-09T10:25:32;21.00;99.90
52513;DHT22;38422;53.172;6.974;2022-09-09T10:28:33;21.20;99.90
52513;DHT22;38422;53.172;6.974;2022-09-09T10:31:18;21.50;99.90
52513;DHT22;38422;53.172;6.974;2022-09-09T10:33:51;21.80;99.90
52513;DHT22;38422;53.172;6.974;2022-09-09T10:36:25;22.00;99.90
52513;DHT22;38422;53.172;6.974;2022-09-09T10:39:04;22.20;99.90
52513;DHT22;38422;53.172;6.974;2022-09-09T10:41:44;22.30;99.90
52513;DHT22;38422;53.172;6.974;2022-09-09T10:44:23;22.10;99.90
52513;DHT22;38422;53.172;6.974;2022-09-09T10:52:25;22.10;99.90
52513;DHT22;38422;53.172;6.974;2022-09-09T10:57:42;22.20;99.90
52513;DHT22;38422;53.172;6.974;2022-09-09T11:00:44;22.40;99.90
52513;DHT22;38422;53.172;6.974;2022-09-09T11:03:22;22.60;99.90
52513;DHT22;38422;53.172;6.974;2022-09-09T11:05:53;22.80;99.60
52513;DHT22;38422;53.172;6.974;2022-09-09T11:08:25;23.10;99.90
52513;DHT22;38422;53.172;6.974;2022-09-09T11:11:04;23.30;99.90
52513;DHT22;38422;53.172;6.974;2022-09-09T11:16:24;23.80;98.70
52513;DHT22;38422;53.172;6.974;2022-09-09T11:19:03;23.80;96.80
52513;DHT22;38422;53.172;6.974;2022-09-09T11:21:38;23.80;97.70
52513;DHT22;38422;53.172;6.974;2022-09-09T11:24:12;23.90;96.70
52513;DHT22;38422;53.172;6.974;2022-09-09T11:26:47;23.70;97.30
52513;DHT22;38422;53.172;6.974;2022-09-09T11:34:36;23.10;97.40
52513;DHT22;38422;53.172;6.974;2022-09-09T11:42:23;23.10;97.40
52513;DHT22;38422;53.172;6.974;2022-09-09T11:44:50;23.10;96.90
52513;DHT22;38422;53.172;6.974;2022-09-09T11:47:30;23.00;97.30
52513;DHT22;38422;53.172;6.974;2022-09-09T11:50:22;22.90;96.00
52513;DHT22;38422;53.172;6.974;2022-09-09T11:55:35;22.90;96.90
52513;DHT22;38422;53.172;6.974;2022-09-09T12:00:48;22.80;96.70
52513;DHT22;38422;53.172;6.974;2022-09-09T12:06:33;22.30;96.80
52513;DHT22;38422;53.172;6.974;2022-09-09T12:09:18;22.20;97.70
52513;DHT22;38422;53.172;6.974;2022-09-09T12:11:45;22.30;98.20
52513;DHT22;38422;53.172;6.974;2022-09-09T12:14:23;22.60;97.70
52513;DHT22;38422;53.172;6.974;2022-09-09T12:17:08;23.10;97.00
52513;DHT22;38422;53.172;6.974;2022-09-09T12:19:34;23.20;96.40
52513;DHT22;38422;53.172;6.974;2022-09-09T12:22:12;23.00;97.00
52513;DHT22;38422;53.172;6.974;2022-09-09T12:27:58;22.60;97.00
52513;DHT22;38422;53.172;6.974;2022-09-09T12:30:53;22.30;97.70
52513;DHT22;38422;53.172;6.974;2022-09-09T12:33:20;22.20;97.80
52513;DHT22;38422;53.172;6.974;2022-09-09T12:35:57;22.10;97.90
52513;DHT22;38422;53.172;6.974;2022-09-09T12:38:35;22.10;98.10
52513;DHT22;38422;53.172;6.974;2022-09-09T12:41:01;22.20;97.90
52513;DHT22;38422;53.172;6.974;2022-09-09T12:43:28;22.40;98.10
52513;DHT22;38422;53.172;6.974;2022-09-09T12:45:57;22.60;97.80
52513;DHT22;38422;53.172;6.974;2022-09-09T12:48:36;22.70;97.60
52513;DHT22;38422;53.172;6.974;2022-09-09T12:51:16;22.70;97.40
52513;DHT22;38422;53.172;6.974;2022-09-09T12:53:43;22.70;97.20
52513;DHT22;38422;53.172;6.974;2022-09-09T12:56:19;22.70;97.10
52513;DHT22;38422;53.172;6.974;2022-09-09T12:58:47;22.70;96.60
52513;DHT22;38422;53.172;6.974;2022-09-09T13:01:29;22.80;96.70
52513;DHT22;38422;53.172;6.974;2022-09-09T13:03:55;23.30;96.10
52513;DHT22;38422;53.172;6.974;2022-09-09T13:06:25;23.90;95.80
52513;DHT22;38422;53.172;6.974;2022-09-09T13:08:52;24.40;94.50
52513;DHT22;38422;53.172;6.974;2022-09-09T13:11:32;24.80;93.80
52513;DHT22;38422;53.172;6.974;2022-09-09T13:14:01;25.10;92.20
52513;DHT22;38422;53.172;6.974;2022-09-09T13:16:30;25.30;92.00
52513;DHT22;38422;53.172;6.974;2022-09-09T13:18:59;25.40;91.80
52513;DHT22;38422;53.172;6.974;2022-09-09T13:21:39;25.60;92.20
52513;DHT22;38422;53.172;6.974;2022-09-09T13:24:31;25.70;91.10
52513;DHT22;38422;53.172;6.974;2022-09-09T13:29:51;25.30;91.40
52513;DHT22;38422;53.172;6.974;2022-09-09T13:32:21;25.30;91.00
52513;DHT22;38422;53.172;6.974;2022-09-09T13:34:58;25.30;91.00
52513;DHT22;38422;53.172;6.974;2022-09-09T13:37:34;25.30;90.10
52513;DHT22;38422;53.172;6.974;2022-09-09T13:40:01;25.20;89.20
52513;DHT22;38422;53.172;6.974;2022-09-09T13:42:29;25.10;90.40
52513;DHT22;38422;53.172;6.974;2022-09-09T13:44:57;25.00;90.30
52513;DHT22;38422;53.172;6.974;2022-09-09T13:47:35;24.70;90.10
52513;DHT22;38422;53.172;6.974;2022-09-09T13:50:20;24.40;90.20
52513;DHT22;38422;53.172;6.974;2022-09-09T13:52:50;24.30;91.10
52513;DHT22;38422;53.172;6.974;2022-09-09T13:55:19;24.00;91.00
52513;DHT22;38422;53.172;6.974;2022-09-09T13:58:03;23.60;91.30
52513;DHT22;38422;53.172;6.974;2022-09-09T14:00:34;23.20;91.80
52513;DHT22;38422;53.172;6.974;2022-09-09T14:03:00;23.00;92.00
52513;DHT22;38422;53.172;6.974;2022-09-09T14:05:28;22.80;92.40
52513;DHT22;38422;53.172;6.974;2022-09-09T14:07:53;22.70;92.60
52513;DHT22;38422;53.172;6.974;2022-09-09T14:10:19;22.50;93.50
52513;DHT22;38422;53.172;6.974;2022-09-09T14:12:46;22.40;94.30
52513;DHT22;38422;53.172;6.974;2022-09-09T14:15:12;22.30;95.00
52513;DHT22;38422;53.172;6.974;2022-09-09T14:17:38;22.30;95.10
52513;DHT22;38422;53.172;6.974;2022-09-09T14:20:04;22.30;95.40
52513;DHT22;38422;53.172;6.974;2022-09-09T14:22:34;22.10;95.10
52513;DHT22;38422;53.172;6.974;2022-09-09T14:25:00;22.00;95.20
52513;DHT22;38422;53.172;6.974;2022-09-09T14:27:26;21.90;95.50
52513;DHT22;38422;53.172;6.974;2022-09-09T14:29:52;21.70;95.70
52513;DHT22;38422;53.172;6.974;2022-09-09T14:32:18;21.60;96.90
52513;DHT22;38422;53.172;6.974;2022-09-09T14:34:44;21.40;98.00
52513;DHT22;38422;53.172;6.974;2022-09-09T14:37:10;21.30;99.00
52513;DHT22;38422;53.172;6.974;2022-09-09T14:39:36;21.20;99.80
52513;DHT22;38422;53.172;6.974;2022-09-09T14:42:02;21.20;99.90
52513;DHT22;38422;53.172;6.974;2022-09-09T14:44:28;21.30;99.90
52513;DHT22;38422;53.172;6.974;2022-09-09T14:46:54;21.30;99.90
52513;DHT22;38422;53.172;6.974;2022-09-09T14:49:20;21.40;99.90
52513;DHT22;38422;53.172;6.974;2022-09-09T14:51:45;21.40;99.90
52513;DHT22;38422;53.172;6.974;2022-09-09T14:54:11;21.40;99.90
52513;DHT22;38422;53.172;6.974;2022-09-09T14:56:37;21.30;99.90
52513;DHT22;38422;53.172;6.974;2022-09-09T14:59:03;21.30;99.90
52513;DHT22;38422;53.172;6.974;2022-09-09T15:01:30;21.20;99.90
52513;DHT22;38422;53.172;6.974;2022-09-09T15:03:59;21.10;99.90
52513;DHT22;38422;53.172;6.974;2022-09-09T15:06:27;21.10;99.90
52513;DHT22;38422;53.172;6.974;2022-09-09T15:08:54;21.00;99.90
52513;DHT22;38422;53.172;6.974;2022-09-09T15:11:25;20.90;99.90
52513;DHT22;38422;53.172;6.974;2022-09-09T15:13:51;20.90;99.90
52513;DHT22;38422;53.172;6.974;2022-09-09T15:16:21;21.00;99.90
52513;DHT22;38422;53.172;6.974;2022-09-09T15:18:51;21.10;99.90
52513;DHT22;38422;53.172;6.974;2022-09-09T15:21:19;21.10;99.90
52513;DHT22;38422;53.172;6.974;2022-09-09T15:23:45;21.00;99.90
52513;DHT22;38422;53.172;6.974;2022-09-09T15:26:11;20.90;99.90
52513;DHT22;38422;53.172;6.974;2022-09-09T15:28:40;20.60;99.90
52513;DHT22;38422;53.172;6.974;2022-09-09T15:31:27;20.50;99.90
52513;DHT22;38422;53.172;6.974;2022-09-09T15:33:56;20.50;99.90
52513;DHT22;38422;53.172;6.974;2022-09-09T15:38:56;20.40;99.90
52513;DHT22;38422;53.172;6.974;2022-09-09T15:41:22;20.30;99.90
52513;DHT22;38422;53.172;6.974;2022-09-09T15:43:50;20.30;99.90
52513;DHT22;38422;53.172;6.974;2022-09-09T15:48:43;20.30;99.90
52513;DHT22;38422;53.172;6.974;2022-09-09T15:51:14;20.40;99.90
52513;DHT22;38422;53.172;6.974;2022-09-09T15:53:39;20.50;99.90
52513;DHT22;38422;53.172;6.974;2022-09-09T15:56:08;20.60;99.90
52513;DHT22;38422;53.172;6.974;2022-09-09T15:58:35;20.70;99.90
52513;DHT22;38422;53.172;6.974;2022-09-09T16:01:10;21.00;99.90
52513;DHT22;38422;53.172;6.974;2022-09-09T16:03:39;21.10;99.90
52513;DHT22;38422;53.172;6.974;2022-09-09T16:06:06;21.20;99.90
52513;DHT22;38422;53.172;6.974;2022-09-09T16:08:33;21.30;99.90
52513;DHT22;38422;53.172;6.974;2022-09-09T16:11:13;21.30;99.90
52513;DHT22;38422;53.172;6.974;2022-09-09T16:13:41;21.30;99.90
52513;DHT22;38422;53.172;6.974;2022-09-09T16:16:08;21.30;99.90
52513;DHT22;38422;53.172;6.974;2022-09-09T16:18:38;21.40;99.90
52513;DHT22;38422;53.172;6.974;2022-09-09T16:21:05;21.40;99.90
52513;DHT22;38422;53.172;6.974;2022-09-09T16:23:35;21.40;99.90
52513;DHT22;38422;53.172;6.974;2022-09-09T16:26:01;21.50;99.90
52513;DHT22;38422;53.172;6.974;2022-09-09T16:28:28;21.50;99.90
52513;DHT22;38422;53.172;6.974;2022-09-09T16:30:53;21.50;99.90
52513;DHT22;38422;53.172;6.974;2022-09-09T16:33:19;21.50;99.90
52513;DHT22;38422;53.172;6.974;2022-09-09T16:35:45;21.50;99.90
52513;DHT22;38422;53.172;6.974;2022-09-09T16:38:11;21.50;99.90
52513;DHT22;38422;53.172;6.974;2022-09-09T16:40:37;21.50;99.90
52513;DHT22;38422;53.172;6.974;2022-09-09T16:43:04;21.30;99.90
52513;DHT22;38422;53.172;6.974;2022-09-09T16:45:31;21.20;99.90
52513;DHT22;38422;53.172;6.974;2022-09-09T16:47:57;21.10;99.90
52513;DHT22;38422;53.172;6.974;2022-09-09T16:50:23;21.10;99.90
52513;DHT22;38422;53.172;6.974;2022-09-09T16:52:49;21.00;99.90
52513;DHT22;38422;53.172;6.974;2022-09-09T16:55:16;20.90;99.90
52513;DHT22;38422;53.172;6.974;2022-09-09T16:57:41;20.90;99.90
52513;DHT22;38422;53.172;6.974;2022-09-09T17:00:07;20.80;99.90
52513;DHT22;38422;53.172;6.974;2022-09-09T17:02:33;20.80;99.90
52513;DHT22;38422;53.172;6.974;2022-09-09T17:04:59;20.80;99.90
52513;DHT22;38422;53.172;6.974;2022-09-09T17:07:25;20.70;99.90
52513;DHT22;38422;53.172;6.974;2022-09-09T17:09:50;20.60;99.90
52513;DHT22;38422;53.172;6.974;2022-09-09T17:12:16;20.50;99.90
52513;DHT22;38422;53.172;6.974;2022-09-09T17:14:42;20.50;99.90
52513;DHT22;38422;53.172;6.974;2022-09-09T17:17:08;20.40;99.90
52513;DHT22;38422;53.172;6.974;2022-09-09T17:19:34;20.40;99.90
52513;DHT22;38422;53.172;6.974;2022-09-09T17:22:00;20.40;99.90
52513;DHT22;38422;53.172;6.974;2022-09-09T17:24:26;20.30;99.90
52513;DHT22;38422;53.172;6.974;2022-09-09T17:26:53;20.30;99.90
52513;DHT22;38422;53.172;6.974;2022-09-09T17:29:19;20.30;99.90
52513;DHT22;38422;53.172;6.974;2022-09-09T17:31:45;20.30;99.90
52513;DHT22;38422;53.172;6.974;2022-09-09T17:34:10;20.20;99.90
52513;DHT22;38422;53.172;6.974;2022-09-09T17:36:37;20.20;99.90
52513;DHT22;38422;53.172;6.974;2022-09-09T17:39:04;20.20;99.90
52513;DHT22;38422;53.172;6.974;2022-09-09T17:41:35;20.20;99.90
52513;DHT22;38422;53.172;6.974;2022-09-09T17:44:02;20.10;99.90
52513;DHT22;38422;53.172;6.974;2022-09-09T17:46:29;20.10;99.90
52513;DHT22;38422;53.172;6.974;2022-09-09T17:48:58;20.10;99.90
52513;DHT22;38422;53.172;6.974;2022-09-09T17:51:25;20.00;99.90
52513;DHT22;38422;53.172;6.974;2022-09-09T17:53:53;20.00;99.90
52513;DHT22;38422;53.172;6.974;2022-09-09T17:56:25;20.00;99.90
52513;DHT22;38422;53.172;6.974;2022-09-09T17:58:52;20.00;99.90
52513;DHT22;38422;53.172;6.974;2022-09-09T18:01:25;20.00;99.90
52513;DHT22;38422;53.172;6.974;2022-09-09T18:03:53;20.00;99.90
52513;DHT22;38422;53.172;6.974;2022-09-09T18:06:27;19.90;99.90
52513;DHT22;38422;53.172;6.974;2022-09-09T18:08:56;19.90;99.90